createdAt,value
2022-11-23T00:00:47.694Z,99962.84
2022-11-23T00:03:16.111Z,99965.69
2022-11-23T00:05:42.715Z,99957.63
2022-11-23T00:08:09.395Z,99950.47
2022-11-23T00:10:36.369Z,99961.16
2022-11-23T00:13:03.265Z,99958.31
2022-11-23T00:15:29.917Z,99959.16
2022-11-23T00:17:56.785Z,99958.31
2022-11-23T00:20:23.416Z,99965.09
2022-11-23T00:22:50.046Z,99959.97
2022-11-23T00:25:17.099Z,99956.91
2022-11-23T00:27:43.734Z,99954.16
2022-11-23T00:30:10.889Z,99969.50
2022-11-23T00:32:37.731Z,99973.78
2022-11-23T00:35:06.974Z,99968.78
2022-11-23T00:37:33.583Z,99973.78
2022-11-23T00:40:00.836Z,99972.13
2022-11-23T00:42:27.473Z,99979.00
2022-11-23T00:44:54.069Z,99977.34
2022-11-23T00:47:21.027Z,99980.91
2022-11-23T00:49:47.645Z,99958.09
2022-11-23T00:52:17.508Z,99974.75
2022-11-23T00:54:44.658Z,99966.88
2022-11-23T00:57:11.314Z,99957.13
2022-11-23T00:59:38.412Z,99958.09
2022-11-23T01:02:05.457Z,99973.06
2022-11-23T01:04:34.685Z,99960.69
2022-11-23T01:07:01.498Z,99966.88
2022-11-23T01:09:32.960Z,99965.44
2022-11-23T01:11:59.785Z,99957.25
2022-11-23T01:14:26.412Z,99975.69
2022-11-23T01:16:53.269Z,99984.34
2022-11-23T01:19:21.005Z,99997.56
2022-11-23T01:21:48.517Z,99988.66
2022-11-23T01:24:22.921Z,99984.25
2022-11-23T01:26:54.036Z,99972.47
2022-11-23T01:29:22.403Z,99973.53
2022-11-23T01:31:49.039Z,100000.69
2022-11-23T01:34:16.439Z,99993.66
2022-11-23T01:36:44.166Z,99997.81
2022-11-23T01:39:12.099Z,99995.09
2022-11-23T01:41:41.018Z,99994.13
2022-11-23T01:44:43.562Z,99981.88
2022-11-23T01:47:10.915Z,99991.41
2022-11-23T01:49:42.998Z,100004.50
2022-11-23T01:52:17.642Z,99985.91
2022-11-23T01:54:49.240Z,100004.50
2022-11-23T01:57:28.992Z,100000.09
2022-11-23T01:59:57.015Z,100000.09
2022-11-23T02:02:26.606Z,99994.03
2022-11-23T02:04:54.122Z,99984.25
2022-11-23T02:07:24.024Z,100000.91
2022-11-23T02:09:52.697Z,100006.13
2022-11-23T02:12:19.614Z,99992.81
2022-11-23T02:14:46.651Z,100003.41
2022-11-23T02:17:13.574Z,99987.59
2022-11-23T02:20:07.791Z,100008.53
2022-11-23T02:22:56.759Z,99996.75
2022-11-23T02:25:56.034Z,100012.00
2022-11-23T02:28:31.402Z,100013.06
2022-11-23T02:30:58.270Z,100010.66
2022-11-23T02:33:25.513Z,100028.53
2022-11-23T02:35:55.776Z,100016.37
2022-11-23T02:38:24.387Z,100014.59
2022-11-23T02:40:51.362Z,100022.47
2022-11-23T02:43:21.661Z,100024.34
2022-11-23T02:45:57.725Z,100008.28
2022-11-23T02:48:25.694Z,100026.72
2022-11-23T02:50:52.626Z,100031.13
2022-11-23T02:53:19.463Z,100018.28
2022-11-23T02:55:46.827Z,100019.09
2022-11-23T02:58:13.584Z,100026.97
2022-11-23T03:00:41.536Z,100034.94
2022-11-23T03:03:08.595Z,100029.56
2022-11-23T03:05:35.498Z,100035.56
2022-11-23T03:08:04.105Z,100032.81
2022-11-23T03:10:31.660Z,100032.06
2022-11-23T03:12:58.410Z,100031.97
2022-11-23T03:15:25.575Z,100035.44
2022-11-23T03:17:52.862Z,100016.84
2022-11-23T03:20:19.840Z,100034.56
2022-11-23T03:22:47.404Z,100039.81
2022-11-23T03:25:15.334Z,100029.34
2022-11-23T03:27:43.589Z,100037.06
2022-11-23T03:30:10.476Z,100025.91
2022-11-23T03:32:37.829Z,100026.97
2022-11-23T03:35:06.139Z,100029.12
2022-11-23T03:37:34.276Z,100028.06
2022-11-23T03:40:01.821Z,100034.81
2022-11-23T03:42:33.384Z,100024.34
2022-11-23T03:45:00.043Z,100034.22
2022-11-23T03:47:27.013Z,100027.56
2022-11-23T03:49:53.635Z,100043.63
2022-11-23T03:52:20.271Z,100039.09
2022-11-23T03:54:47.627Z,100046.25
2022-11-23T03:57:14.472Z,100025.91
2022-11-23T03:59:41.149Z,100056.63
2022-11-23T04:02:08.892Z,100063.63
2022-11-23T04:04:36.775Z,100054.94
2022-11-23T04:07:04.276Z,100064.69
2022-11-23T04:09:31.596Z,100050.87
2022-11-23T04:12:00.499Z,100056.34
2022-11-23T07:29:59.835Z,100140.31
2022-11-23T07:32:26.905Z,100140.31
2022-11-23T07:34:54.577Z,100137.09
2022-11-23T07:37:21.421Z,100138.63
2022-11-23T07:39:57.370Z,100119.47
2022-11-23T07:42:33.414Z,100142.44
2022-11-23T07:45:02.246Z,100151.50
2022-11-23T07:47:29.318Z,100158.87
2022-11-23T07:49:55.910Z,100156.38
2022-11-23T07:52:22.905Z,100134.44
2022-11-23T07:54:49.584Z,100143.84
2022-11-23T07:57:16.376Z,100157.19
2022-11-23T07:59:43.366Z,100151.38
2022-11-23T08:02:15.758Z,100159.81
2022-11-23T08:04:42.894Z,100152.78
2022-11-23T08:07:09.550Z,100167.09
2022-11-23T08:09:36.650Z,100158.25
2022-11-23T08:12:03.784Z,100185.28
2022-11-23T08:14:30.907Z,100176.69
2022-11-23T08:16:57.722Z,100168.50
2022-11-23T08:19:24.720Z,100182.56
2022-11-23T08:21:51.487Z,100176.22
2022-11-23T08:24:18.115Z,100194.44
2022-11-23T08:26:45.195Z,100189.22
2022-11-23T08:29:12.070Z,100188.28
2022-11-23T08:31:38.829Z,100184.72
2022-11-23T08:34:05.941Z,100171.63
2022-11-23T08:36:32.786Z,100185.41
2022-11-23T08:38:59.708Z,100195.06
2022-11-23T08:41:27.521Z,100183.75
2022-11-23T08:43:54.218Z,100176.84
2022-11-23T08:46:21.239Z,100172.56
2022-11-23T08:48:50.739Z,100181.88
2022-11-23T08:51:22.594Z,100181.62
2022-11-23T08:53:50.053Z,100186.63
2022-11-23T08:56:17.283Z,100184.72
2022-11-23T08:58:44.255Z,100167.13
2022-11-23T09:01:13.173Z,100159.97
2022-11-23T09:03:40.164Z,100164.97
2022-11-23T09:06:07.513Z,100155.53
2022-11-23T09:08:35.733Z,100164.97
2022-11-23T09:11:05.491Z,100170.19
2022-11-23T09:13:32.387Z,100164.16
2022-11-23T09:16:00.795Z,100158.91
2022-11-23T09:18:30.687Z,100150.78
2022-11-23T09:20:58.115Z,100157.22
2022-11-23T09:23:27.041Z,100158.91
2022-11-23T09:25:53.874Z,100139.81
2022-11-23T09:28:20.673Z,100151.16
2022-11-23T09:30:48.173Z,100154.25
2022-11-23T09:33:15.125Z,100140.91
2022-11-23T09:35:43.981Z,100146.75
2022-11-23T09:38:11.515Z,100144.38
2022-11-23T09:40:41.430Z,100128.37
2022-11-23T09:43:26.857Z,100141.03
2022-11-23T09:45:55.163Z,100145.31
2022-11-23T09:48:46.153Z,100144.25
2022-11-23T09:51:19.837Z,100150.53
2022-11-23T09:53:57.035Z,100139.38
2022-11-23T09:56:28.686Z,100149.22
2022-11-23T09:58:59.568Z,100136.25
2022-11-23T10:01:32.911Z,100109.00
2022-11-23T10:04:00.081Z,100131.75
2022-11-23T10:06:34.612Z,100130.66
2022-11-23T10:09:16.996Z,100125.19
2022-11-23T10:12:20.972Z,100117.22
2022-11-23T10:15:05.166Z,100112.81
2022-11-23T10:17:37.628Z,100108.28
2022-11-23T10:20:23.247Z,100113.38
2022-11-23T10:23:08.429Z,100088.75
2022-11-23T10:25:43.615Z,100098.28
2022-11-23T10:28:17.024Z,100114.00
2022-11-23T10:30:51.435Z,100120.91
2022-11-23T10:33:21.781Z,100114.00
2022-11-23T10:35:48.802Z,100103.41
2022-11-23T10:38:19.777Z,100118.87
2022-11-23T10:41:15.536Z,100117.22
2022-11-23T10:44:03.979Z,100106.62
2022-11-23T10:46:32.229Z,100113.50
2022-11-23T10:49:34.390Z,100116.25
2022-11-23T10:52:08.370Z,100112.81
2022-11-23T10:54:40.297Z,100120.66
2022-11-23T10:57:42.455Z,100122.34
2022-11-23T11:00:18.136Z,100115.31
2022-11-23T11:02:50.500Z,100112.81
2022-11-23T11:08:21.975Z,100110.16
2022-11-23T11:10:57.921Z,100115.53
2022-11-23T11:13:26.102Z,100111.84
2022-11-23T11:15:54.774Z,100123.53
2022-11-23T11:18:22.557Z,100133.75
2022-11-23T11:20:57.155Z,100114.34
2022-11-23T11:23:25.044Z,100125.78
2022-11-23T11:26:04.269Z,100108.06
2022-11-23T11:28:40.172Z,100105.31
2022-11-23T11:31:37.406Z,100134.72
2022-11-23T11:34:22.715Z,100135.87
2022-11-23T11:37:02.399Z,100111.37
2022-11-23T11:39:37.703Z,100136.75
2022-11-23T11:42:08.883Z,100121.16
2022-11-23T11:44:39.402Z,100126.25
2022-11-23T11:47:34.085Z,100131.13
2022-11-23T11:50:06.202Z,100129.25
2022-11-23T11:52:39.185Z,100131.63
2022-11-23T11:55:19.939Z,100140.31
2022-11-23T11:57:51.919Z,100124.94
2022-11-23T12:00:20.855Z,100136.75
